Time;durP1;ratioP1;P1;durP2;ratioP2;P2;SDS_P1;SDS_P2;PMS_P1;PMS_P2;Temp;Humidity;BMP_temperature;BMP_pressure;BME280_temperature;BME280_humidity;BME280_pressure;Samples;Min_cycle;Max_cycle;Signal;HPM_P1;HPM_P2
2022/07/02 00:02:20;;;;;;;10.20;9.30;;;16.60;99.90;;;;;;5074238;28;20468;-74
2022/07/02 00:04:52;;;;;;;12.73;10.27;;;16.50;99.90;;;;;;5073395;28;20499;-74
2022/07/02 00:07:18;;;;;;;10.90;9.90;;;16.50;99.90;;;;;;5073494;28;21044;-74
2022/07/02 00:09:45;;;;;;;11.47;10.33;;;16.40;99.90;;;;;;5073458;28;20467;-74
2022/07/02 00:12:14;;;;;;;10.70;9.70;;;16.40;99.90;;;;;;5073646;28;20464;-74
2022/07/02 00:14:41;;;;;;;11.43;10.33;;;16.40;99.90;;;;;;5073442;28;20449;-74
2022/07/02 00:17:09;;;;;;;12.73;11.40;;;16.30;99.90;;;;;;5073274;28;20444;-74
2022/07/02 00:19:37;;;;;;;11.60;10.70;;;16.30;99.90;;;;;;5073238;28;20444;-74
2022/07/02 00:22:06;;;;;;;11.70;10.50;;;16.30;99.90;;;;;;5073413;28;20476;-74
2022/07/02 00:24:32;;;;;;;12.30;11.00;;;16.30;99.90;;;;;;5073268;28;20817;-73
2022/07/02 00:27:03;;;;;;;14.43;11.03;;;16.20;99.90;;;;;;5073218;28;20503;-74
2022/07/02 00:29:35;;;;;;;11.90;10.70;;;16.20;99.90;;;;;;5073287;28;20835;-73
2022/07/02 00:32:04;;;;;;;11.93;10.80;;;16.10;99.90;;;;;;5073132;28;20457;-73
2022/07/02 00:34:32;;;;;;;13.90;12.60;;;16.10;99.90;;;;;;5073251;28;20444;-74
2022/07/02 00:37:00;;;;;;;17.53;12.10;;;16.10;99.90;;;;;;5073063;28;20449;-73
2022/07/02 00:39:26;;;;;;;15.03;13.30;;;16.10;99.90;;;;;;5072835;28;20449;-74
2022/07/02 00:41:55;;;;;;;17.73;15.23;;;16.10;99.90;;;;;;5072391;28;20468;-73
2022/07/02 00:44:23;;;;;;;24.60;17.57;;;16.10;99.90;;;;;;5073144;28;20815;-73
2022/07/02 00:46:52;;;;;;;23.63;16.80;;;16.10;99.90;;;;;;5072977;28;20484;-73
2022/07/02 00:49:19;;;;;;;19.67;15.27;;;16.10;99.90;;;;;;5073246;28;20444;-73
2022/07/02 00:51:46;;;;;;;17.73;14.57;;;16.00;99.90;;;;;;5073164;28;20556;-73
2022/07/02 00:54:13;;;;;;;15.53;14.03;;;15.90;99.90;;;;;;5073117;28;21037;-73
2022/07/02 00:56:40;;;;;;;15.13;13.53;;;15.80;99.90;;;;;;5073169;28;20441;-72
2022/07/02 00:59:07;;;;;;;14.47;12.93;;;15.80;99.90;;;;;;5072691;28;20449;-74
2022/07/02 01:01:34;;;;;;;14.03;12.57;;;15.70;99.90;;;;;;5073032;28;20465;-73
2022/07/02 01:04:04;;;;;;;15.93;14.20;;;15.70;99.90;;;;;;5073074;28;20453;-73
2022/07/02 01:06:33;;;;;;;15.73;14.20;;;15.80;99.90;;;;;;5072427;28;20468;-73
2022/07/02 01:11:46;;;;;;;13.80;12.50;;;15.70;99.90;;;;;;5072774;28;20483;-73
2022/07/02 01:14:13;;;;;;;14.60;13.03;;;15.70;99.90;;;;;;5072730;28;20948;-73
2022/07/02 01:16:40;;;;;;;13.53;12.27;;;15.70;99.90;;;;;;5072806;28;20441;-73
2022/07/02 01:19:10;;;;;;;13.53;12.23;;;15.70;99.90;;;;;;5072944;28;20444;-73
2022/07/02 01:21:38;;;;;;;12.33;10.90;;;15.70;99.90;;;;;;5072585;28;20481;-73
2022/07/02 01:24:07;;;;;;;12.90;11.60;;;15.60;99.90;;;;;;5072908;28;20448;-73
2022/07/02 01:26:34;;;;;;;12.00;10.13;;;15.60;99.90;;;;;;5072754;28;20476;-73
2022/07/02 01:29:00;;;;;;;14.13;12.60;;;15.60;99.90;;;;;;5072937;28;20459;-73
2022/07/02 01:31:27;;;;;;;13.53;12.23;;;15.60;99.90;;;;;;5072591;28;20467;-73
2022/07/02 01:33:54;;;;;;;13.10;11.80;;;15.60;99.90;;;;;;5072561;28;20457;-73
2022/07/02 01:36:20;;;;;;;12.40;11.10;;;15.60;99.90;;;;;;5072564;28;20449;-74
2022/07/02 01:38:48;;;;;;;17.43;14.83;;;15.50;99.90;;;;;;5072597;28;20449;-73
2022/07/02 01:44:00;;;;;;;15.30;12.73;;;15.50;99.90;;;;;;5073045;28;20546;-73
2022/07/02 01:46:27;;;;;;;15.20;13.47;;;15.50;99.90;;;;;;5074082;28;20797;-74
2022/07/02 01:48:54;;;;;;;13.57;12.27;;;15.50;99.90;;;;;;5074963;28;20521;-74
2022/07/02 01:51:20;;;;;;;12.37;11.27;;;15.50;99.90;;;;;;5075043;28;20445;-74
2022/07/02 01:53:47;;;;;;;15.63;12.37;;;15.60;99.90;;;;;;5077937;28;20440;-74
2022/07/02 01:56:15;;;;;;;12.60;11.47;;;15.60;99.90;;;;;;5079394;28;20436;-74
2022/07/02 01:58:42;;;;;;;12.17;11.00;;;15.60;99.90;;;;;;5078725;28;20437;-74
2022/07/02 02:01:09;;;;;;;12.97;11.67;;;15.70;99.90;;;;;;5076744;28;20482;-73
2022/07/02 02:03:35;;;;;;;12.93;11.63;;;15.60;99.90;;;;;;5076076;28;20458;-74
2022/07/02 02:06:02;;;;;;;13.70;11.93;;;15.60;99.90;;;;;;5075901;28;20452;-73
2022/07/02 02:08:29;;;;;;;13.10;10.37;;;15.60;99.90;;;;;;5075871;28;20471;-74
2022/07/02 02:10:56;;;;;;;13.93;12.43;;;15.60;99.90;;;;;;5075703;28;20448;-73
2022/07/02 02:13:24;;;;;;;13.83;12.43;;;15.60;99.90;;;;;;5075864;28;20471;-73
2022/07/02 02:15:51;;;;;;;12.37;11.27;;;15.50;99.90;;;;;;5075632;28;20448;-73
2022/07/02 02:18:18;;;;;;;12.70;11.40;;;15.50;99.90;;;;;;5075556;28;20436;-73
2022/07/02 02:20:44;;;;;;;12.50;11.40;;;15.50;99.90;;;;;;5075545;28;20451;-73
2022/07/02 02:23:11;;;;;;;13.13;11.93;;;15.60;99.90;;;;;;5077816;22;20480;-77
2022/07/02 02:25:38;;;;;;;12.80;11.60;;;15.50;99.90;;;;;;5056253;28;20452;-77
2022/07/02 02:28:05;;;;;;;12.80;11.60;;;15.50;99.90;;;;;;5055702;28;20489;-77
2022/07/02 02:30:33;;;;;;;13.70;12.30;;;15.50;99.90;;;;;;5056388;28;20445;-77
2022/07/02 02:33:00;;;;;;;13.50;12.10;;;15.50;99.90;;;;;;5057105;28;21013;-77
2022/07/02 02:35:27;;;;;;;13.37;11.90;;;15.40;99.90;;;;;;5056162;28;20446;-76
2022/07/02 02:37:53;;;;;;;13.63;12.23;;;15.40;99.90;;;;;;5063276;28;20452;-77
2022/07/02 02:40:20;;;;;;;12.50;11.40;;;15.40;99.90;;;;;;5056758;28;20940;-77
2022/07/02 02:42:47;;;;;;;17.57;13.37;;;15.40;99.90;;;;;;5056312;28;20468;-78
2022/07/02 02:45:13;;;;;;;13.40;12.07;;;15.40;99.90;;;;;;5056108;28;20450;-77
2022/07/02 02:47:41;;;;;;;13.63;11.63;;;15.30;99.90;;;;;;5056211;28;20848;-77
2022/07/02 02:50:09;;;;;;;13.13;11.90;;;15.30;99.90;;;;;;5057135;28;20449;-77
2022/07/02 02:52:35;;;;;;;13.63;12.40;;;15.30;99.90;;;;;;5056205;28;20832;-77
2022/07/02 02:55:02;;;;;;;13.87;12.43;;;15.30;99.90;;;;;;5055911;28;20499;-78
2022/07/02 02:57:29;;;;;;;13.10;11.80;;;15.20;99.90;;;;;;5056814;28;20808;-77
2022/07/02 02:59:56;;;;;;;13.70;12.30;;;15.20;99.90;;;;;;5056676;28;20453;-77
2022/07/02 03:02:23;;;;;;;14.77;13.30;;;15.10;99.90;;;;;;5055841;28;20984;-77
2022/07/02 03:04:51;;;;;;;15.90;13.20;;;15.20;99.90;;;;;;5055723;28;20868;-77
2022/07/02 03:07:18;;;;;;;14.10;12.70;;;15.20;99.90;;;;;;5056040;28;20458;-77
2022/07/02 03:09:44;;;;;;;13.40;12.00;;;15.20;99.90;;;;;;5056020;28;20875;-77
2022/07/02 03:12:11;;;;;;;15.27;13.67;;;15.20;99.90;;;;;;5055845;28;20474;-77
2022/07/02 03:14:38;;;;;;;14.03;12.53;;;15.20;99.90;;;;;;5055951;28;20545;-77
2022/07/02 03:17:05;;;;;;;14.50;13.00;;;15.20;99.90;;;;;;5056125;28;20442;-77
2022/07/02 03:19:32;;;;;;;16.83;14.00;;;15.20;99.90;;;;;;5055399;28;20442;-77
2022/07/02 03:22:00;;;;;;;14.77;11.90;;;15.20;99.90;;;;;;5055570;28;20493;-77
2022/07/02 03:24:27;;;;;;;16.20;14.33;;;15.20;99.90;;;;;;5055676;28;20418;-77
2022/07/02 03:26:54;;;;;;;13.53;12.23;;;15.20;99.90;;;;;;5056095;28;20833;-77
2022/07/02 03:29:20;;;;;;;16.50;13.90;;;15.30;99.90;;;;;;5056381;28;20821;-77
2022/07/02 03:31:47;;;;;;;14.77;13.17;;;15.20;99.90;;;;;;5055950;28;20948;-77
2022/07/02 03:34:14;;;;;;;17.33;13.33;;;15.30;99.90;;;;;;5056412;28;20453;-77
2022/07/02 03:36:41;;;;;;;16.80;15.10;;;15.30;99.90;;;;;;5055922;28;20437;-77
2022/07/02 03:39:09;;;;;;;18.13;13.63;;;15.30;99.90;;;;;;5055780;28;20450;-79
2022/07/02 03:41:35;;;;;;;16.47;13.00;;;15.20;99.90;;;;;;5055422;28;20449;-76
2022/07/02 03:44:02;;;;;;;15.87;13.23;;;15.20;99.90;;;;;;5054887;28;20458;-77
2022/07/02 03:46:29;;;;;;;15.47;13.87;;;15.20;99.90;;;;;;5054798;28;20548;-77
2022/07/02 03:48:56;;;;;;;16.10;14.40;;;15.30;99.90;;;;;;5054816;28;20446;-77
2022/07/02 03:51:22;;;;;;;13.13;11.83;;;15.20;99.90;;;;;;5054653;28;20449;-77
2022/07/02 03:53:49;;;;;;;15.00;13.47;;;15.30;99.90;;;;;;5054140;28;21007;-77
2022/07/02 03:56:17;;;;;;;15.10;13.50;;;15.30;99.90;;;;;;5055251;28;20446;-78
2022/07/02 03:58:44;;;;;;;16.00;14.00;;;15.30;99.90;;;;;;5057926;28;20439;-77
2022/07/02 04:01:11;;;;;;;15.80;13.80;;;15.30;99.90;;;;;;5055177;28;20203;-78
2022/07/02 04:03:38;;;;;;;16.63;13.60;;;15.30;99.90;;;;;;5054919;28;20476;-77
2022/07/02 04:06:05;;;;;;;15.23;13.63;;;15.30;99.90;;;;;;5055665;28;20473;-77
2022/07/02 04:08:32;;;;;;;14.50;12.90;;;15.30;99.90;;;;;;5054407;28;20488;-77
2022/07/02 04:10:59;;;;;;;14.97;13.40;;;15.20;99.90;;;;;;5054208;28;20450;-77
2022/07/02 04:13:27;;;;;;;18.07;14.10;;;15.20;99.90;;;;;;5054018;28;20469;-77
2022/07/02 04:15:55;;;;;;;15.50;13.60;;;15.30;99.90;;;;;;5054356;28;20461;-77
2022/07/02 04:18:22;;;;;;;14.93;13.30;;;15.30;99.90;;;;;;5054554;28;20445;-78
2022/07/02 04:20:49;;;;;;;14.70;13.17;;;15.30;99.90;;;;;;5054110;28;20526;-78
2022/07/02 04:23:15;;;;;;;16.23;14.00;;;15.30;99.90;;;;;;5053771;28;20477;-77
2022/07/02 04:25:42;;;;;;;16.17;13.60;;;15.30;99.90;;;;;;5054798;28;20456;-77
2022/07/02 04:28:10;;;;;;;15.77;14.10;;;15.30;99.90;;;;;;5054357;28;20484;-77
2022/07/02 04:30:38;;;;;;;14.73;13.17;;;15.30;99.90;;;;;;5054600;28;20450;-77
2022/07/02 04:33:05;;;;;;;18.83;15.40;;;15.30;99.90;;;;;;5054273;28;20473;-77
2022/07/02 04:35:32;;;;;;;13.87;12.57;;;15.40;99.90;;;;;;5055084;28;20449;-79
2022/07/02 04:37:58;;;;;;;15.43;13.38;;;15.50;99.90;;;;;;5054222;28;20431;-77
2022/07/02 04:40:25;;;;;;;15.20;13.57;;;15.60;99.90;;;;;;5054846;28;20599;-78
2022/07/02 04:42:52;;;;;;;16.37;12.83;;;15.60;99.90;;;;;;5054518;28;20492;-77
2022/07/02 04:45:19;;;;;;;14.30;12.90;;;15.70;99.90;;;;;;5054103;28;20450;-77
2022/07/02 04:47:47;;;;;;;14.07;12.03;;;15.70;99.90;;;;;;5053887;28;20485;-78
2022/07/02 04:50:14;;;;;;;12.93;11.63;;;15.70;99.90;;;;;;5054195;28;20456;-77
2022/07/02 04:52:41;;;;;;;13.63;12.23;;;15.70;99.90;;;;;;5053672;28;20465;-77
2022/07/02 04:55:08;;;;;;;18.43;12.80;;;15.80;99.90;;;;;;5054423;28;20458;-77
2022/07/02 04:57:34;;;;;;;13.90;11.80;;;15.90;99.90;;;;;;5053915;28;20784;-77
2022/07/02 05:00:01;;;;;;;13.90;11.60;;;16.00;99.90;;;;;;5053935;28;20455;-77
2022/07/02 05:02:28;;;;;;;12.90;11.60;;;16.00;99.90;;;;;;5053957;28;20469;-77
2022/07/02 05:04:57;;;;;;;18.07;12.47;;;15.90;99.90;;;;;;5053688;28;20453;-77
2022/07/02 05:07:23;;;;;;;13.20;11.80;;;16.10;99.90;;;;;;5053771;28;20458;-77
2022/07/02 05:09:50;;;;;;;11.60;10.40;;;16.10;99.90;;;;;;5054002;28;20820;-77
2022/07/02 05:12:17;;;;;;;15.93;11.83;;;16.20;99.90;;;;;;5053796;28;20470;-77
2022/07/02 05:14:43;;;;;;;12.30;11.00;;;16.30;99.90;;;;;;5053746;28;20445;-77
2022/07/02 05:17:10;;;;;;;12.33;10.80;;;16.40;99.90;;;;;;5054094;28;20438;-77
2022/07/02 05:19:37;;;;;;;14.20;12.80;;;16.40;99.90;;;;;;5054014;28;20565;-77
2022/07/02 05:22:05;;;;;;;12.40;11.10;;;16.50;99.90;;;;;;5053356;28;20481;-77
2022/07/02 05:24:32;;;;;;;11.87;10.70;;;16.50;99.90;;;;;;5054420;28;20446;-77
2022/07/02 05:26:59;;;;;;;11.93;9.67;;;16.90;99.90;;;;;;5055810;28;20449;-77
2022/07/02 05:29:25;;;;;;;12.20;11.00;;;16.70;99.90;;;;;;5059926;28;20457;-77
2022/07/02 05:31:52;;;;;;;12.07;10.87;;;16.60;99.90;;;;;;5059076;28;20457;-77
2022/07/02 05:34:19;;;;;;;11.07;9.93;;;16.70;99.90;;;;;;5058560;28;20453;-77
2022/07/02 05:36:47;;;;;;;15.93;11.27;;;16.70;99.90;;;;;;5057658;28;20453;-77
2022/07/02 05:39:15;;;;;;;11.90;10.70;;;16.80;99.90;;;;;;5057950;28;20500;-77
2022/07/02 05:41:42;;;;;;;12.67;10.60;;;16.80;99.90;;;;;;5057828;28;20449;-77
2022/07/02 05:44:09;;;;;;;10.33;9.00;;;16.90;99.90;;;;;;5057655;28;20829;-77
2022/07/02 05:46:36;;;;;;;12.30;10.73;;;17.10;99.90;;;;;;5057512;28;20928;-77
2022/07/02 05:49:02;;;;;;;12.10;11.00;;;17.00;99.90;;;;;;5057389;28;20478;-77
2022/07/02 05:51:29;;;;;;;11.43;10.00;;;17.40;99.90;;;;;;5057009;28;21051;-76
2022/07/02 05:53:56;;;;;;;11.60;10.50;;;17.30;99.90;;;;;;5057049;28;20449;-76
2022/07/02 05:56:24;;;;;;;15.23;13.43;;;17.20;99.90;;;;;;5057100;28;20445;-77
2022/07/02 05:58:51;;;;;;;11.23;10.13;;;17.30;99.90;;;;;;5057005;28;20442;-77
2022/07/02 06:01:17;;;;;;;10.50;9.50;;;17.30;99.90;;;;;;5056773;28;20461;-77
2022/07/02 06:03:44;;;;;;;14.40;12.97;;;17.30;99.90;;;;;;5057063;28;20465;-77
2022/07/02 06:08:55;;;;;;;10.87;9.80;;;17.50;99.90;;;;;;5057035;28;20539;-77
2022/07/02 06:11:22;;;;;;;11.40;10.20;;;17.60;99.90;;;;;;5056755;28;20464;-77
2022/07/02 06:13:50;;;;;;;15.63;14.00;;;17.90;99.90;;;;;;5057952;28;20465;-78
2022/07/02 06:16:17;;;;;;;16.00;13.50;;;17.70;99.90;;;;;;5056945;28;20456;-78
2022/07/02 06:18:44;;;;;;;13.03;11.67;;;17.80;99.90;;;;;;5057262;28;20449;-77
2022/07/02 06:21:11;;;;;;;10.17;9.27;;;18.00;99.90;;;;;;5056909;28;20519;-76
2022/07/02 06:23:38;;;;;;;11.40;10.13;;;18.00;99.90;;;;;;5057297;28;20484;-76
2022/07/02 06:26:05;;;;;;;11.40;10.27;;;18.00;99.90;;;;;;5056239;28;20810;-77
2022/07/02 06:28:32;;;;;;;11.70;10.60;;;18.20;99.90;;;;;;5056290;28;20844;-77
2022/07/02 06:31:00;;;;;;;11.03;10.13;;;18.30;99.90;;;;;;5056160;28;20484;-78
2022/07/02 06:33:26;;;;;;;9.57;8.67;;;18.40;99.90;;;;;;5055965;28;20519;-76
2022/07/02 06:35:53;;;;;;;9.77;8.93;;;18.40;99.90;;;;;;5056148;28;20445;-77
2022/07/02 06:38:20;;;;;;;9.27;8.37;;;18.50;99.90;;;;;;5055758;28;20442;-77
2022/07/02 06:40:47;;;;;;;9.40;8.50;;;18.60;99.90;;;;;;5056384;28;20445;-77
2022/07/02 06:43:13;;;;;;;9.37;8.47;;;18.60;99.90;;;;;;5056325;28;20477;-77
2022/07/02 06:45:40;;;;;;;9.20;8.40;;;18.70;99.90;;;;;;5055862;28;20456;-77
2022/07/02 06:48:08;;;;;;;9.40;8.57;;;18.60;99.90;;;;;;5055536;28;21019;-76
2022/07/02 06:50:35;;;;;;;10.30;7.70;;;18.80;99.90;;;;;;5055626;28;20442;-76
2022/07/02 06:53:02;;;;;;;9.03;8.23;;;18.80;99.90;;;;;;5055743;28;20461;-77
2022/07/02 06:55:28;;;;;;;10.10;8.77;;;18.90;99.90;;;;;;5056672;28;20461;-77
2022/07/02 06:57:55;;;;;;;8.53;7.83;;;19.00;99.90;;;;;;5055919;28;20446;-78
2022/07/02 07:00:23;;;;;;;8.50;7.80;;;19.10;99.90;;;;;;5055472;28;20450;-77
2022/07/02 07:02:50;;;;;;;8.93;8.13;;;19.20;99.90;;;;;;5055485;28;20466;-78
2022/07/02 07:05:18;;;;;;;9.17;8.37;;;19.10;99.90;;;;;;5058274;28;20450;-77
2022/07/02 07:07:45;;;;;;;8.20;7.40;;;19.10;99.90;;;;;;5056272;28;20484;-77
2022/07/02 07:10:12;;;;;;;9.10;8.23;;;19.30;99.90;;;;;;5057049;28;20836;-78
2022/07/02 07:12:39;;;;;;;10.60;7.80;;;19.60;99.90;;;;;;5055901;28;20485;-77
2022/07/02 07:15:09;;;;;;;8.33;7.43;;;19.60;99.90;;;;;;5055220;28;20452;-77
2022/07/02 07:17:36;;;;;;;6.80;6.30;;;19.50;99.90;;;;;;5055640;28;20855;-77
2022/07/02 07:20:04;;;;;;;8.20;7.47;;;19.70;99.90;;;;;;5056324;28;20453;-77
2022/07/02 07:22:32;;;;;;;7.93;7.13;;;19.80;99.90;;;;;;5056126;28;20473;-77
2022/07/02 07:24:59;;;;;;;10.53;8.40;;;20.00;99.90;;;;;;5054897;28;20940;-77
2022/07/02 07:27:25;;;;;;;7.10;6.40;;;19.80;99.90;;;;;;5055079;28;20871;-77
2022/07/02 07:29:52;;;;;;;7.03;6.10;;;19.90;99.90;;;;;;5055532;28;20492;-77
2022/07/02 07:32:19;;;;;;;6.40;5.90;;;20.00;99.90;;;;;;5055220;28;20466;-77
2022/07/02 07:34:45;;;;;;;8.30;5.60;;;20.10;99.90;;;;;;5055507;28;20446;-77
2022/07/02 07:37:13;;;;;;;4.80;4.47;;;20.20;99.90;;;;;;5059251;28;20458;-78
2022/07/02 07:39:41;;;;;;;6.20;5.60;;;20.30;99.90;;;;;;5056336;28;20880;-77
2022/07/02 07:42:08;;;;;;;5.17;4.77;;;20.40;99.90;;;;;;5061672;28;20465;-78
2022/07/02 07:44:35;;;;;;;5.73;4.63;;;20.40;99.90;;;;;;5059003;28;20949;-77
2022/07/02 07:47:01;;;;;;;5.80;5.30;;;20.40;99.90;;;;;;5056056;28;20453;-77
2022/07/02 07:49:28;;;;;;;6.23;4.30;;;20.50;99.90;;;;;;5057148;28;20886;-78
2022/07/02 07:51:55;;;;;;;5.60;5.20;;;20.60;99.90;;;;;;5055443;28;20980;-77
2022/07/02 07:54:22;;;;;;;4.93;4.53;;;20.70;99.90;;;;;;5057880;28;20453;-77
2022/07/02 07:56:50;;;;;;;4.43;4.00;;;20.80;99.90;;;;;;5058155;28;20449;-77
2022/07/02 07:59:16;;;;;;;5.27;4.23;;;20.90;99.90;;;;;;5055813;28;20469;-76
2022/07/02 08:01:43;;;;;;;5.57;5.03;;;20.90;99.90;;;;;;5056155;28;20452;-75
2022/07/02 08:04:10;;;;;;;4.97;4.53;;;21.00;99.90;;;;;;5057781;28;20445;-77
2022/07/02 08:06:37;;;;;;;4.60;4.20;;;21.10;99.90;;;;;;5058000;28;20453;-77
2022/07/02 08:09:04;;;;;;;2.70;2.50;;;21.20;99.90;;;;;;5057612;28;20505;-78
2022/07/02 08:11:30;;;;;;;4.17;3.47;;;21.20;99.90;;;;;;5058197;28;20450;-77
2022/07/02 08:13:59;;;;;;;3.37;3.07;;;21.20;99.90;;;;;;5057610;28;20446;-78
2022/07/02 08:16:26;;;;;;;3.10;2.83;;;21.30;99.90;;;;;;5058549;28;20460;-77
2022/07/02 08:18:52;;;;;;;4.27;3.30;;;21.40;99.90;;;;;;5056942;28;20454;-78
2022/07/02 08:21:19;;;;;;;3.40;2.67;;;21.40;99.90;;;;;;5055479;28;20821;-77
2022/07/02 08:23:46;;;;;;;3.07;2.87;;;21.40;99.90;;;;;;5092538;22;20995;-74
2022/07/02 08:26:12;;;;;;;2.90;2.30;;;21.50;99.90;;;;;;5073834;28;20444;-75
2022/07/02 08:28:39;;;;;;;9.93;3.03;;;21.60;99.90;;;;;;5072841;28;20476;-74
2022/07/02 08:31:07;;;;;;;4.53;2.40;;;21.70;99.90;;;;;;5073326;28;20958;-73
2022/07/02 08:33:34;;;;;;;3.27;2.97;;;21.80;99.90;;;;;;5073292;28;20614;-74
2022/07/02 08:36:01;;;;;;;5.80;2.10;;;22.00;99.90;;;;;;5073199;28;20445;-74
2022/07/02 08:38:28;;;;;;;5.03;2.70;;;22.10;99.90;;;;;;5073503;28;21009;-76
2022/07/02 08:40:55;;;;;;;3.70;3.40;;;22.20;99.90;;;;;;5073272;28;20459;-75
2022/07/02 08:43:25;;;;;;;3.20;2.90;;;22.40;99.90;;;;;;5073264;28;20468;-75
2022/07/02 08:45:53;;;;;;;2.53;2.33;;;22.50;99.90;;;;;;5074325;28;20455;-75
2022/07/02 08:48:22;;;;;;;6.23;3.30;;;22.50;99.90;;;;;;5072742;28;20508;-75
2022/07/02 08:50:50;;;;;;;3.67;3.00;;;22.60;99.90;;;;;;5073147;28;20441;-74
2022/07/02 08:53:18;;;;;;;3.27;3.00;;;22.70;99.90;;;;;;5072966;28;20838;-74
2022/07/02 08:55:45;;;;;;;3.33;3.10;;;22.70;99.90;;;;;;5073289;28;20444;-75
2022/07/02 08:58:12;;;;;;;2.57;2.47;;;22.60;99.90;;;;;;5072894;28;20490;-75
2022/07/02 09:00:39;;;;;;;2.53;2.33;;;22.60;99.90;;;;;;5072796;28;20455;-74
2022/07/02 09:03:08;;;;;;;2.20;2.00;;;22.50;99.90;;;;;;5072082;28;20480;-74
2022/07/02 09:05:40;;;;;;;2.13;1.90;;;22.50;99.90;;;;;;5072730;28;20456;-74
2022/07/02 09:08:07;;;;;;;2.80;2.60;;;22.50;99.90;;;;;;5072581;28;20429;-75
2022/07/02 09:10:34;;;;;;;5.37;2.57;;;22.40;99.90;;;;;;5072911;28;20448;-73
2022/07/02 09:13:01;;;;;;;2.20;2.00;;;22.30;99.90;;;;;;5072890;28;20983;-75
2022/07/02 09:15:28;;;;;;;2.30;2.20;;;22.30;99.90;;;;;;5073132;28;20448;-75
2022/07/02 09:17:55;;;;;;;2.63;2.43;;;22.30;99.90;;;;;;5072704;28;20455;-75
2022/07/02 09:20:22;;;;;;;2.10;2.00;;;22.30;99.90;;;;;;5072689;28;20448;-74
2022/07/02 09:22:52;;;;;;;4.50;3.00;;;22.40;99.90;;;;;;5072595;28;20484;-74
2022/07/02 09:25:20;;;;;;;2.10;2.00;;;22.40;99.90;;;;;;5072527;28;20863;-74
2022/07/02 09:27:48;;;;;;;2.90;2.70;;;22.40;99.90;;;;;;5072466;28;20455;-74
2022/07/02 09:30:18;;;;;;;3.90;2.30;;;22.50;99.90;;;;;;5072344;28;21028;-75
2022/07/02 09:32:46;;;;;;;3.43;2.20;;;22.50;99.90;;;;;;5072546;28;20471;-75
2022/07/02 09:35:18;;;;;;;2.80;2.20;;;22.50;99.90;;;;;;5072778;28;20816;-75
2022/07/02 09:37:45;;;;;;;3.10;1.90;;;22.50;99.90;;;;;;5072615;28;20444;-75
2022/07/02 09:40:14;;;;;;;4.23;3.30;;;22.60;99.90;;;;;;5072488;28;20437;-75
2022/07/02 09:42:46;;;;;;;2.70;2.10;;;22.60;99.90;;;;;;5072167;28;20475;-75
2022/07/02 09:45:14;;;;;;;4.57;1.87;;;22.50;99.90;;;;;;5072589;28;20508;-75
2022/07/02 09:47:44;;;;;;;4.37;2.60;;;22.70;99.90;;;;;;5072191;28;20506;-74
2022/07/02 09:50:12;;;;;;;3.13;2.40;;;22.70;99.90;;;;;;5072657;28;20477;-72
2022/07/02 09:52:48;;;;;;;2.50;2.30;;;22.60;99.90;;;;;;5072777;28;20551;-74
2022/07/02 09:55:24;;;;;;;2.50;2.07;;;22.30;99.90;;;;;;5072717;28;20435;-74
2022/07/02 09:57:52;;;;;;;2.83;2.40;;;22.40;99.90;;;;;;5072317;28;20888;-74
2022/07/02 10:00:20;;;;;;;2.10;1.90;;;22.40;99.90;;;;;;5072268;28;20445;-74
2022/07/02 10:02:51;;;;;;;3.20;2.90;;;22.40;99.90;;;;;;5072479;28;20472;-74
2022/07/02 10:05:23;;;;;;;2.43;2.23;;;22.30;99.90;;;;;;5072637;28;20504;-74
2022/07/02 10:07:50;;;;;;;2.27;2.17;;;22.30;99.90;;;;;;5072521;28;20440;-76
2022/07/02 10:10:17;;;;;;;1.93;1.83;;;22.30;99.90;;;;;;5072794;28;20817;-75
2022/07/02 10:12:46;;;;;;;6.10;5.50;;;22.10;99.90;;;;;;5072158;28;20473;-75
2022/07/02 10:15:16;;;;;;;4.70;2.27;;;22.20;99.90;;;;;;5074623;28;20445;-74
2022/07/02 10:17:44;;;;;;;3.00;2.60;;;22.40;99.90;;;;;;5076329;28;20463;-74
2022/07/02 10:20:12;;;;;;;6.80;2.20;;;22.60;99.90;;;;;;5075782;28;20444;-74
2022/07/02 10:22:38;;;;;;;3.80;2.40;;;22.90;99.90;;;;;;5075735;28;20991;-74
2022/07/02 10:25:07;;;;;;;5.53;2.60;;;23.20;99.90;;;;;;5075762;28;20449;-74
2022/07/02 10:27:34;;;;;;;2.77;2.57;;;23.20;99.90;;;;;;5075680;28;20449;-75
2022/07/02 10:30:02;;;;;;;3.47;2.57;;;23.30;99.90;;;;;;5075445;28;20883;-74
2022/07/02 10:32:36;;;;;;;2.70;2.50;;;23.50;99.90;;;;;;5075498;28;20469;-75
2022/07/02 10:35:10;;;;;;;2.10;1.90;;;23.60;99.90;;;;;;5076041;28;20780;-74
2022/07/02 10:37:39;;;;;;;4.00;2.47;;;23.70;99.90;;;;;;5075650;28;20791;-75
2022/07/02 10:40:07;;;;;;;4.60;2.30;;;23.80;99.90;;;;;;5074842;28;21030;-74
2022/07/02 10:42:42;;;;;;;2.30;1.80;;;23.60;99.90;;;;;;5075112;28;20468;-75
2022/07/02 10:45:15;;;;;;;2.17;1.90;;;23.40;99.90;;;;;;5074803;28;20449;-74
2022/07/02 10:48:00;;;;;;;2.30;2.20;;;23.60;99.90;;;;;;5075054;28;20440;-75
2022/07/02 10:50:38;;;;;;;3.87;2.40;;;23.30;99.90;;;;;;5077050;28;20571;-74
2022/07/02 10:53:08;;;;;;;3.30;2.10;;;23.20;99.90;;;;;;5075306;28;20483;-74
2022/07/02 10:55:35;;;;;;;1.90;1.80;;;23.30;99.90;;;;;;5075905;28;20500;-76
2022/07/02 10:58:04;;;;;;;8.07;6.97;;;23.30;99.90;;;;;;5075437;28;20453;-75
2022/07/02 11:00:34;;;;;;;3.90;3.50;;;23.50;99.90;;;;;;5075155;28;20444;-74
2022/07/02 11:03:12;;;;;;;35.60;28.43;;;23.50;99.90;;;;;;5075859;28;20464;-74
2022/07/02 11:05:56;;;;;;;5.00;3.20;;;23.80;99.90;;;;;;5075091;28;20437;-74
2022/07/02 11:08:48;;;;;;;2.03;1.93;;;23.90;99.90;;;;;;5074347;28;20433;-74
2022/07/02 11:11:17;;;;;;;3.30;2.70;;;23.90;99.90;;;;;;5070981;28;20441;-74
2022/07/02 11:13:48;;;;;;;3.00;2.70;;;23.90;98.30;;;;;;5074981;28;20468;-75
2022/07/02 11:16:25;;;;;;;2.83;2.43;;;23.90;95.70;;;;;;5074924;28;20433;-74
2022/07/02 11:18:54;;;;;;;3.30;3.00;;;23.90;99.90;;;;;;5074812;28;20429;-75
2022/07/02 11:21:24;;;;;;;4.93;2.80;;;23.70;99.90;;;;;;5074347;28;20943;-75
2022/07/02 11:23:51;;;;;;;3.27;2.97;;;23.80;99.90;;;;;;5074126;28;20484;-74
2022/07/02 11:26:21;;;;;;;5.70;5.10;;;23.80;99.90;;;;;;5074295;28;20448;-74
2022/07/02 11:28:48;;;;;;;2.40;2.30;;;23.70;99.90;;;;;;5074014;28;20919;-75
2022/07/02 11:31:15;;;;;;;3.50;2.43;;;23.60;99.90;;;;;;5074349;28;20440;-75
2022/07/02 11:33:50;;;;;;;2.83;2.17;;;23.70;99.90;;;;;;5074198;28;20834;-74
2022/07/02 11:36:17;;;;;;;2.63;2.40;;;23.80;99.90;;;;;;5074232;28;20453;-74
2022/07/02 11:38:45;;;;;;;2.70;2.50;;;23.80;99.80;;;;;;5074076;28;20440;-74
2022/07/02 11:41:23;;;;;;;2.03;1.90;;;23.80;96.60;;;;;;5074203;28;20816;-74
2022/07/02 11:43:51;;;;;;;2.13;2.03;;;23.90;99.90;;;;;;5074122;28;20824;-75
2022/07/02 11:46:20;;;;;;;3.03;1.80;;;23.80;99.90;;;;;;5073901;28;20441;-75
2022/07/02 11:48:48;;;;;;;3.00;2.70;;;23.90;99.90;;;;;;5073831;28;20444;-75
2022/07/02 11:51:16;;;;;;;2.50;2.40;;;23.90;99.90;;;;;;5074095;28;20507;-74
2022/07/02 11:53:43;;;;;;;2.20;2.10;;;23.90;99.40;;;;;;5073659;28;20522;-75
2022/07/02 11:56:13;;;;;;;2.10;2.00;;;24.10;99.90;;;;;;5073914;28;20445;-73
2022/07/02 11:58:41;;;;;;;2.73;2.53;;;23.90;93.10;;;;;;5073661;28;20830;-75
2022/07/02 12:01:18;;;;;;;2.10;1.97;;;24.00;96.70;;;;;;5073652;28;20472;-75
2022/07/02 12:03:45;;;;;;;2.07;1.97;;;24.30;98.20;;;;;;5073633;28;20464;-75
2022/07/02 12:06:14;;;;;;;1.60;1.50;;;24.40;96.50;;;;;;5073675;28;20575;-75
2022/07/02 12:08:42;;;;;;;1.90;1.80;;;24.20;93.80;;;;;;5073969;28;20449;-75
2022/07/02 12:11:12;;;;;;;1.70;1.60;;;24.30;94.00;;;;;;5073360;28;20481;-74
2022/07/02 12:13:39;;;;;;;1.90;1.80;;;24.10;84.40;;;;;;5073325;28;20473;-75
2022/07/02 12:16:06;;;;;;;1.80;1.70;;;24.20;95.40;;;;;;5073521;28;20467;-74
2022/07/02 12:18:32;;;;;;;1.50;1.40;;;24.40;98.70;;;;;;5073620;28;20514;-75
2022/07/02 12:21:09;;;;;;;2.13;2.03;;;24.50;90.90;;;;;;5073310;28;20441;-75
2022/07/02 12:23:44;;;;;;;1.80;1.70;;;24.60;94.90;;;;;;5073991;28;20504;-74
2022/07/02 12:26:13;;;;;;;3.93;3.53;;;24.80;94.20;;;;;;5073634;28;20488;-74
2022/07/02 12:31:24;;;;;;;2.37;2.03;;;25.00;93.80;;;;;;5072866;28;20455;-74
2022/07/02 12:33:56;;;;;;;2.20;2.00;;;24.90;84.90;;;;;;5073147;28;20868;-74
2022/07/02 12:36:22;;;;;;;1.90;1.80;;;24.70;82.90;;;;;;5072893;28;20794;-74
2022/07/02 12:38:51;;;;;;;2.80;2.57;;;24.60;85.40;;;;;;5072820;28;20445;-75
2022/07/02 12:41:17;;;;;;;4.00;1.87;;;24.70;90.40;;;;;;5073832;28;20445;-75
2022/07/02 12:43:53;;;;;;;4.83;4.40;;;24.80;90.10;;;;;;5073180;28;20472;-74
2022/07/02 12:46:20;;;;;;;2.97;1.87;;;24.70;90.60;;;;;;5073214;28;20460;-75
2022/07/02 12:48:47;;;;;;;2.07;1.93;;;24.90;91.10;;;;;;5073215;28;20502;-74
2022/07/02 12:51:14;;;;;;;2.30;2.00;;;25.00;91.00;;;;;;5073061;28;20477;-74